sensor_id;sensor_type;location;lat;lon;timestamp;pressure;altitude;pressure_sealevel;temperature;humidity
59110;BME280;44895;47.438;18.978;2023-10-19T00:02:38;99616.41;;;8.99;100.00
59110;BME280;44895;47.438;18.978;2023-10-19T00:05:42;99609.38;;;8.79;100.00
59110;BME280;44895;47.438;18.978;2023-10-19T00:08:49;99606.31;;;9.05;100.00
59110;BME280;44895;47.438;18.978;2023-10-19T00:11:55;99597.09;;;9.06;100.00
59110;BME280;44895;47.438;18.978;2023-10-19T00:14:59;99599.06;;;9.00;100.00
59110;BME280;44895;47.438;18.978;2023-10-19T00:18:03;99595.25;;;9.01;100.00
59110;BME280;44895;47.438;18.978;2023-10-19T00:21:19;99589.88;;;9.15;100.00
59110;BME280;44895;47.438;18.978;2023-10-19T00:24:23;99585.34;;;9.10;100.00
59110;BME280;44895;47.438;18.978;2023-10-19T00:27:27;99581.75;;;9.15;100.00
59110;BME280;44895;47.438;18.978;2023-10-19T00:30:31;99582.75;;;8.86;100.00
59110;BME280;44895;47.438;18.978;2023-10-19T00:33:39;99582.63;;;9.10;100.00
59110;BME280;44895;47.438;18.978;2023-10-19T00:36:43;99571.50;;;9.12;100.00
59110;BME280;44895;47.438;18.978;2023-10-19T00:39:46;99562.38;;;8.89;100.00
59110;BME280;44895;47.438;18.978;2023-10-19T00:43:03;99558.84;;;9.07;100.00
59110;BME280;44895;47.438;18.978;2023-10-19T00:46:12;99558.59;;;9.23;100.00
59110;BME280;44895;47.438;18.978;2023-10-19T00:49:22;99560.97;;;9.10;100.00
59110;BME280;44895;47.438;18.978;2023-10-19T00:52:27;99539.59;;;9.09;100.00
59110;BME280;44895;47.438;18.978;2023-10-19T00:55:35;99547.63;;;9.14;100.00
59110;BME280;44895;47.438;18.978;2023-10-19T00:58:39;99541.69;;;9.12;100.00
59110;BME280;44895;47.438;18.978;2023-10-19T01:01:45;99551.94;;;9.15;100.00
59110;BME280;44895;47.438;18.978;2023-10-19T01:04:54;99547.69;;;8.95;100.00
59110;BME280;44895;47.438;18.978;2023-10-19T01:08:08;99547.72;;;9.09;100.00
59110;BME280;44895;47.438;18.978;2023-10-19T01:11:27;99545.31;;;9.07;100.00
59110;BME280;44895;47.438;18.978;2023-10-19T01:14:32;99538.66;;;9.00;100.00
59110;BME280;44895;47.438;18.978;2023-10-19T01:17:38;99543.19;;;9.04;100.00
59110;BME280;44895;47.438;18.978;2023-10-19T01:20:42;99537.06;;;8.98;100.00
59110;BME280;44895;47.438;18.978;2023-10-19T01:23:56;99535.88;;;8.53;100.00
59110;BME280;44895;47.438;18.978;2023-10-19T01:27:00;99538.63;;;8.86;100.00
59110;BME280;44895;47.438;18.978;2023-10-19T01:30:03;99525.25;;;8.75;100.00
59110;BME280;44895;47.438;18.978;2023-10-19T01:33:08;99519.88;;;8.70;100.00
59110;BME280;44895;47.438;18.978;2023-10-19T01:36:19;99515.06;;;8.67;100.00
59110;BME280;44895;47.438;18.978;2023-10-19T01:39:25;99507.75;;;8.68;100.00
59110;BME280;44895;47.438;18.978;2023-10-19T01:42:29;99505.25;;;8.71;100.00
59110;BME280;44895;47.438;18.978;2023-10-19T01:45:34;99493.25;;;8.20;100.00
59110;BME280;44895;47.438;18.978;2023-10-19T01:48:42;99485.69;;;8.60;100.00
59110;BME280;44895;47.438;18.978;2023-10-19T01:51:45;99488.22;;;8.71;100.00
59110;BME280;44895;47.438;18.978;2023-10-19T01:54:50;99478.63;;;8.78;100.00
59110;BME280;44895;47.438;18.978;2023-10-19T01:58:02;99484.59;;;8.61;100.00
59110;BME280;44895;47.438;18.978;2023-10-19T02:01:07;99478.78;;;8.68;100.00
59110;BME280;44895;47.438;18.978;2023-10-19T02:04:16;99483.41;;;8.81;100.00
59110;BME280;44895;47.438;18.978;2023-10-19T02:07:20;99473.41;;;8.82;100.00
59110;BME280;44895;47.438;18.978;2023-10-19T02:10:25;99471.50;;;8.82;100.00
59110;BME280;44895;47.438;18.978;2023-10-19T02:13:30;99460.66;;;8.49;100.00
59110;BME280;44895;47.438;18.978;2023-10-19T02:16:34;99457.91;;;8.69;100.00
59110;BME280;44895;47.438;18.978;2023-10-19T02:19:40;99459.31;;;8.66;100.00
59110;BME280;44895;47.438;18.978;2023-10-19T02:22:44;99456.81;;;8.70;100.00
59110;BME280;44895;47.438;18.978;2023-10-19T02:25:48;99453.53;;;8.73;100.00
59110;BME280;44895;47.438;18.978;2023-10-19T02:28:54;99456.34;;;8.81;100.00
59110;BME280;44895;47.438;18.978;2023-10-19T02:31:59;99447.13;;;8.82;100.00
59110;BME280;44895;47.438;18.978;2023-10-19T02:35:08;99442.81;;;8.81;100.00
59110;BME280;44895;47.438;18.978;2023-10-19T02:38:12;99428.69;;;8.85;100.00
59110;BME280;44895;47.438;18.978;2023-10-19T02:41:17;99425.09;;;8.89;100.00
59110;BME280;44895;47.438;18.978;2023-10-19T02:44:23;99418.66;;;8.99;100.00
59110;BME280;44895;47.438;18.978;2023-10-19T02:47:28;99410.75;;;8.89;100.00
59110;BME280;44895;47.438;18.978;2023-10-19T02:50:32;99412.63;;;8.74;100.00
59110;BME280;44895;47.438;18.978;2023-10-19T02:53:37;99405.94;;;8.86;100.00
59110;BME280;44895;47.438;18.978;2023-10-19T02:56:41;99415.84;;;8.90;100.00
59110;BME280;44895;47.438;18.978;2023-10-19T02:59:46;99409.22;;;8.82;100.00
59110;BME280;44895;47.438;18.978;2023-10-19T03:02:50;99398.47;;;8.77;100.00
59110;BME280;44895;47.438;18.978;2023-10-19T03:05:55;99404.28;;;8.71;100.00
59110;BME280;44895;47.438;18.978;2023-10-19T03:09:03;99399.41;;;8.73;100.00
59110;BME280;44895;47.438;18.978;2023-10-19T03:12:18;99393.00;;;8.49;100.00
59110;BME280;44895;47.438;18.978;2023-10-19T03:15:22;99393.97;;;8.73;100.00
59110;BME280;44895;47.438;18.978;2023-10-19T03:18:27;99383.91;;;8.59;100.00
59110;BME280;44895;47.438;18.978;2023-10-19T03:21:31;99367.28;;;8.66;100.00
59110;BME280;44895;47.438;18.978;2023-10-19T03:24:46;99369.16;;;8.52;100.00
59110;BME280;44895;47.438;18.978;2023-10-19T03:27:51;99366.16;;;8.53;100.00
59110;BME280;44895;47.438;18.978;2023-10-19T03:30:54;99362.59;;;8.39;100.00
59110;BME280;44895;47.438;18.978;2023-10-19T03:33:58;99344.91;;;8.27;100.00
59110;BME280;44895;47.438;18.978;2023-10-19T03:37:02;99343.69;;;8.20;100.00
59110;BME280;44895;47.438;18.978;2023-10-19T03:40:10;99353.41;;;8.02;100.00
59110;BME280;44895;47.438;18.978;2023-10-19T03:43:19;99351.81;;;8.20;100.00
59110;BME280;44895;47.438;18.978;2023-10-19T03:46:26;99353.13;;;8.22;100.00
59110;BME280;44895;47.438;18.978;2023-10-19T03:49:41;99347.84;;;8.31;100.00
59110;BME280;44895;47.438;18.978;2023-10-19T03:52:44;99346.72;;;7.80;100.00
59110;BME280;44895;47.438;18.978;2023-10-19T03:55:49;99346.59;;;8.23;100.00
59110;BME280;44895;47.438;18.978;2023-10-19T03:58:58;99342.53;;;8.40;100.00
59110;BME280;44895;47.438;18.978;2023-10-19T04:02:02;99329.16;;;8.48;100.00
59110;BME280;44895;47.438;18.978;2023-10-19T04:05:13;99328.59;;;7.80;100.00
59110;BME280;44895;47.438;18.978;2023-10-19T04:08:26;99320.97;;;8.02;100.00
59110;BME280;44895;47.438;18.978;2023-10-19T04:11:30;99308.00;;;8.18;100.00
59110;BME280;44895;47.438;18.978;2023-10-19T04:14:51;99308.25;;;8.35;100.00
59110;BME280;44895;47.438;18.978;2023-10-19T04:17:55;99304.72;;;7.68;100.00
59110;BME280;44895;47.438;18.978;2023-10-19T04:21:02;99301.91;;;7.93;100.00
59110;BME280;44895;47.438;18.978;2023-10-19T04:24:06;99295.91;;;7.96;100.00
59110;BME280;44895;47.438;18.978;2023-10-19T04:27:10;99279.78;;;8.24;100.00
59110;BME280;44895;47.438;18.978;2023-10-19T04:30:16;99283.47;;;8.28;100.00
59110;BME280;44895;47.438;18.978;2023-10-19T04:33:26;99280.22;;;8.45;100.00
59110;BME280;44895;47.438;18.978;2023-10-19T04:36:31;99272.81;;;8.51;100.00
59110;BME280;44895;47.438;18.978;2023-10-19T04:39:37;99276.03;;;8.53;100.00
59110;BME280;44895;47.438;18.978;2023-10-19T04:42:40;99268.97;;;8.38;100.00
59110;BME280;44895;47.438;18.978;2023-10-19T04:45:44;99278.59;;;8.30;100.00
59110;BME280;44895;47.438;18.978;2023-10-19T04:48:49;99266.13;;;8.15;100.00
59110;BME280;44895;47.438;18.978;2023-10-19T04:51:53;99251.84;;;8.42;100.00
59110;BME280;44895;47.438;18.978;2023-10-19T04:54:57;99260.59;;;8.06;100.00
59110;BME280;44895;47.438;18.978;2023-10-19T04:58:00;99267.63;;;8.07;100.00
59110;BME280;44895;47.438;18.978;2023-10-19T05:01:04;99261.16;;;8.22;100.00
59110;BME280;44895;47.438;18.978;2023-10-19T05:04:09;99251.66;;;8.39;100.00
59110;BME280;44895;47.438;18.978;2023-10-19T05:07:12;99254.09;;;8.07;100.00
59110;BME280;44895;47.438;18.978;2023-10-19T05:10:19;99249.09;;;8.14;100.00
59110;BME280;44895;47.438;18.978;2023-10-19T05:13:23;99255.19;;;8.53;100.00
59110;BME280;44895;47.438;18.978;2023-10-19T05:16:28;99253.16;;;8.31;100.00
59110;BME280;44895;47.438;18.978;2023-10-19T05:19:32;99249.16;;;8.42;100.00
59110;BME280;44895;47.438;18.978;2023-10-19T05:22:36;99265.22;;;8.06;100.00
59110;BME280;44895;47.438;18.978;2023-10-19T05:25:39;99264.34;;;7.91;100.00
59110;BME280;44895;47.438;18.978;2023-10-19T05:28:43;99260.69;;;8.01;100.00
59110;BME280;44895;47.438;18.978;2023-10-19T05:31:47;99252.94;;;8.27;100.00
59110;BME280;44895;47.438;18.978;2023-10-19T05:34:57;99262.16;;;8.40;100.00
59110;BME280;44895;47.438;18.978;2023-10-19T05:38:01;99262.44;;;8.25;100.00
59110;BME280;44895;47.438;18.978;2023-10-19T05:41:06;99258.56;;;8.31;100.00
59110;BME280;44895;47.438;18.978;2023-10-19T05:44:11;99255.59;;;8.46;100.00
59110;BME280;44895;47.438;18.978;2023-10-19T05:47:15;99254.19;;;8.63;100.00
59110;BME280;44895;47.438;18.978;2023-10-19T05:50:19;99261.38;;;8.54;100.00
59110;BME280;44895;47.438;18.978;2023-10-19T05:53:23;99249.16;;;8.56;100.00
59110;BME280;44895;47.438;18.978;2023-10-19T05:56:27;99248.38;;;8.56;100.00
59110;BME280;44895;47.438;18.978;2023-10-19T05:59:31;99254.56;;;8.09;100.00
59110;BME280;44895;47.438;18.978;2023-10-19T06:02:37;99261.91;;;8.09;100.00
59110;BME280;44895;47.438;18.978;2023-10-19T06:05:41;99270.19;;;8.45;100.00
59110;BME280;44895;47.438;18.978;2023-10-19T06:08:44;99256.38;;;8.47;100.00
59110;BME280;44895;47.438;18.978;2023-10-19T06:11:48;99254.56;;;8.70;100.00
59110;BME280;44895;47.438;18.978;2023-10-19T06:14:53;99258.00;;;8.62;100.00
59110;BME280;44895;47.438;18.978;2023-10-19T06:17:57;99247.69;;;8.50;100.00
59110;BME280;44895;47.438;18.978;2023-10-19T06:21:01;99248.13;;;8.38;100.00
59110;BME280;44895;47.438;18.978;2023-10-19T06:24:05;99253.06;;;8.36;100.00
59110;BME280;44895;47.438;18.978;2023-10-19T06:27:09;99236.81;;;8.36;100.00
59110;BME280;44895;47.438;18.978;2023-10-19T06:30:14;99229.28;;;8.33;100.00
59110;BME280;44895;47.438;18.978;2023-10-19T06:33:21;99209.91;;;8.59;100.00
59110;BME280;44895;47.438;18.978;2023-10-19T06:36:28;99226.63;;;8.61;100.00
59110;BME280;44895;47.438;18.978;2023-10-19T06:39:33;99224.53;;;8.58;100.00
59110;BME280;44895;47.438;18.978;2023-10-19T06:42:37;99224.13;;;8.51;100.00
59110;BME280;44895;47.438;18.978;2023-10-19T06:45:44;99229.59;;;8.45;100.00
59110;BME280;44895;47.438;18.978;2023-10-19T06:48:48;99228.84;;;8.59;100.00
59110;BME280;44895;47.438;18.978;2023-10-19T06:51:53;99220.59;;;8.36;100.00
59110;BME280;44895;47.438;18.978;2023-10-19T06:54:57;99240.56;;;8.54;100.00
59110;BME280;44895;47.438;18.978;2023-10-19T06:58:01;99210.78;;;8.54;100.00
59110;BME280;44895;47.438;18.978;2023-10-19T07:01:07;99201.31;;;8.93;100.00
59110;BME280;44895;47.438;18.978;2023-10-19T07:04:12;99213.38;;;8.73;100.00
59110;BME280;44895;47.438;18.978;2023-10-19T07:07:16;99213.78;;;8.80;100.00
59110;BME280;44895;47.438;18.978;2023-10-19T07:10:20;99213.09;;;8.47;100.00
59110;BME280;44895;47.438;18.978;2023-10-19T07:13:25;99208.75;;;8.88;100.00
59110;BME280;44895;47.438;18.978;2023-10-19T07:16:29;99207.84;;;8.92;100.00
59110;BME280;44895;47.438;18.978;2023-10-19T07:19:33;99204.13;;;9.02;100.00
59110;BME280;44895;47.438;18.978;2023-10-19T07:22:36;99210.00;;;9.04;100.00
59110;BME280;44895;47.438;18.978;2023-10-19T07:25:41;99198.38;;;9.04;100.00
59110;BME280;44895;47.438;18.978;2023-10-19T07:28:48;99208.56;;;9.21;100.00
59110;BME280;44895;47.438;18.978;2023-10-19T07:31:52;99205.03;;;8.97;100.00
59110;BME280;44895;47.438;18.978;2023-10-19T07:34:58;99192.44;;;9.16;100.00
59110;BME280;44895;47.438;18.978;2023-10-19T07:38:02;99183.94;;;9.08;100.00
59110;BME280;44895;47.438;18.978;2023-10-19T07:41:08;99179.03;;;8.96;100.00
59110;BME280;44895;47.438;18.978;2023-10-19T07:44:12;99177.09;;;9.11;100.00
59110;BME280;44895;47.438;18.978;2023-10-19T07:47:16;99176.25;;;9.24;100.00
59110;BME280;44895;47.438;18.978;2023-10-19T07:50:20;99172.25;;;9.22;100.00
59110;BME280;44895;47.438;18.978;2023-10-19T07:53:26;99179.03;;;8.96;100.00
59110;BME280;44895;47.438;18.978;2023-10-19T07:56:30;99161.34;;;9.36;100.00
59110;BME280;44895;47.438;18.978;2023-10-19T07:59:34;99157.53;;;9.37;100.00
59110;BME280;44895;47.438;18.978;2023-10-19T08:02:38;99148.47;;;9.19;100.00
59110;BME280;44895;47.438;18.978;2023-10-19T08:05:44;99145.16;;;9.44;100.00
59110;BME280;44895;47.438;18.978;2023-10-19T08:08:48;99147.66;;;9.63;100.00
59110;BME280;44895;47.438;18.978;2023-10-19T08:11:52;99138.63;;;9.23;100.00
59110;BME280;44895;47.438;18.978;2023-10-19T08:14:58;99147.59;;;9.32;100.00
59110;BME280;44895;47.438;18.978;2023-10-19T08:18:03;99148.22;;;9.74;100.00
59110;BME280;44895;47.438;18.978;2023-10-19T08:21:09;99140.88;;;9.75;100.00
59110;BME280;44895;47.438;18.978;2023-10-19T08:24:12;99142.84;;;9.83;100.00
59110;BME280;44895;47.438;18.978;2023-10-19T08:27:21;99140.34;;;10.36;100.00
59110;BME280;44895;47.438;18.978;2023-10-19T08:30:27;99131.19;;;10.23;100.00
59110;BME280;44895;47.438;18.978;2023-10-19T08:33:32;99130.50;;;10.08;100.00
59110;BME280;44895;47.438;18.978;2023-10-19T08:36:38;99118.91;;;10.25;100.00
59110;BME280;44895;47.438;18.978;2023-10-19T08:39:41;99120.44;;;10.49;100.00
59110;BME280;44895;47.438;18.978;2023-10-19T08:42:46;99109.13;;;10.16;100.00
59110;BME280;44895;47.438;18.978;2023-10-19T08:45:51;99113.94;;;10.19;100.00
59110;BME280;44895;47.438;18.978;2023-10-19T08:48:58;99102.88;;;10.47;100.00
59110;BME280;44895;47.438;18.978;2023-10-19T08:52:02;99092.84;;;10.73;100.00
59110;BME280;44895;47.438;18.978;2023-10-19T08:55:07;99086.75;;;10.76;100.00
59110;BME280;44895;47.438;18.978;2023-10-19T08:58:13;99085.00;;;10.72;100.00
59110;BME280;44895;47.438;18.978;2023-10-19T09:01:19;99085.00;;;10.98;100.00
59110;BME280;44895;47.438;18.978;2023-10-19T09:04:23;99077.66;;;11.72;100.00
59110;BME280;44895;47.438;18.978;2023-10-19T09:07:27;99082.09;;;11.30;100.00
59110;BME280;44895;47.438;18.978;2023-10-19T09:10:34;99077.97;;;11.06;100.00
59110;BME280;44895;47.438;18.978;2023-10-19T09:13:47;99078.59;;;11.12;100.00
59110;BME280;44895;47.438;18.978;2023-10-19T09:16:56;99073.91;;;12.03;100.00
59110;BME280;44895;47.438;18.978;2023-10-19T09:20:00;99068.56;;;12.37;100.00
59110;BME280;44895;47.438;18.978;2023-10-19T09:23:06;99064.97;;;12.24;100.00
59110;BME280;44895;47.438;18.978;2023-10-19T09:26:11;99066.09;;;11.28;100.00
59110;BME280;44895;47.438;18.978;2023-10-19T09:29:17;99071.03;;;12.00;100.00
59110;BME280;44895;47.438;18.978;2023-10-19T09:32:22;99073.28;;;11.89;100.00
59110;BME280;44895;47.438;18.978;2023-10-19T09:35:26;99066.03;;;12.02;100.00
59110;BME280;44895;47.438;18.978;2023-10-19T09:38:31;99076.19;;;11.84;100.00
59110;BME280;44895;47.438;18.978;2023-10-19T09:41:36;99074.22;;;12.32;100.00
59110;BME280;44895;47.438;18.978;2023-10-19T09:44:54;99068.09;;;11.57;100.00
59110;BME280;44895;47.438;18.978;2023-10-19T09:48:00;99057.25;;;12.05;100.00
59110;BME280;44895;47.438;18.978;2023-10-19T09:51:05;99050.09;;;12.21;100.00
59110;BME280;44895;47.438;18.978;2023-10-19T09:54:26;99039.00;;;11.97;100.00
59110;BME280;44895;47.438;18.978;2023-10-19T09:57:36;99026.19;;;12.27;100.00
59110;BME280;44895;47.438;18.978;2023-10-19T10:00:47;99032.34;;;12.45;100.00
59110;BME280;44895;47.438;18.978;2023-10-19T10:03:54;99019.88;;;12.78;100.00
59110;BME280;44895;47.438;18.978;2023-10-19T10:07:01;99012.25;;;12.50;100.00
59110;BME280;44895;47.438;18.978;2023-10-19T10:10:07;98996.19;;;12.36;100.00
59110;BME280;44895;47.438;18.978;2023-10-19T10:16:28;98992.47;;;12.40;100.00
59110;BME280;44895;47.438;18.978;2023-10-19T10:19:32;98984.13;;;12.79;100.00
59110;BME280;44895;47.438;18.978;2023-10-19T10:22:36;98978.88;;;13.08;100.00
59110;BME280;44895;47.438;18.978;2023-10-19T10:25:39;98964.75;;;12.81;100.00
59110;BME280;44895;47.438;18.978;2023-10-19T10:28:48;98962.97;;;12.97;100.00
59110;BME280;44895;47.438;18.978;2023-10-19T10:31:52;98976.53;;;13.31;100.00
59110;BME280;44895;47.438;18.978;2023-10-19T10:34:57;98956.31;;;12.73;100.00
59110;BME280;44895;47.438;18.978;2023-10-19T10:38:01;98944.84;;;13.14;100.00
59110;BME280;44895;47.438;18.978;2023-10-19T10:41:05;98945.75;;;13.18;100.00
59110;BME280;44895;47.438;18.978;2023-10-19T10:44:10;98946.44;;;13.27;100.00
59110;BME280;44895;47.438;18.978;2023-10-19T10:47:21;98932.31;;;13.00;100.00
59110;BME280;44895;47.438;18.978;2023-10-19T10:50:28;98941.63;;;12.66;100.00
59110;BME280;44895;47.438;18.978;2023-10-19T10:53:31;98932.75;;;12.90;100.00
59110;BME280;44895;47.438;18.978;2023-10-19T10:56:40;98932.34;;;13.25;100.00
59110;BME280;44895;47.438;18.978;2023-10-19T10:59:45;98920.63;;;13.12;100.00
59110;BME280;44895;47.438;18.978;2023-10-19T11:03:00;98915.91;;;13.71;100.00
59110;BME280;44895;47.438;18.978;2023-10-19T11:06:11;98911.22;;;14.25;100.00
59110;BME280;44895;47.438;18.978;2023-10-19T11:09:15;98904.69;;;14.70;100.00
59110;BME280;44895;47.438;18.978;2023-10-19T11:12:22;98897.31;;;14.01;100.00
59110;BME280;44895;47.438;18.978;2023-10-19T11:15:25;98894.78;;;14.65;100.00
